sensor_id;sensor_type;location;lat;lon;timestamp;pressure;altitude;pressure_sealevel;temperature
28803;BMP280;15949;55.656;37.422;2023-03-16T00:00:54;99026.94;;;1.76
28803;BMP280;15949;55.656;37.422;2023-03-16T00:05:59;99020.56;;;1.73
28803;BMP280;15949;55.656;37.422;2023-03-16T00:11:05;99010.00;;;1.75
28803;BMP280;15949;55.656;37.422;2023-03-16T00:16:11;99007.09;;;1.81
28803;BMP280;15949;55.656;37.422;2023-03-16T00:21:21;98995.28;;;1.80
28803;BMP280;15949;55.656;37.422;2023-03-16T00:26:26;98996.53;;;1.83
28803;BMP280;15949;55.656;37.422;2023-03-16T00:31:32;99007.59;;;1.83
28803;BMP280;15949;55.656;37.422;2023-03-16T00:36:38;99004.25;;;1.83
28803;BMP280;15949;55.656;37.422;2023-03-16T00:41:44;99007.09;;;1.81
28803;BMP280;15949;55.656;37.422;2023-03-16T00:46:49;99005.13;;;1.73
28803;BMP280;15949;55.656;37.422;2023-03-16T00:51:56;99004.38;;;1.73
28803;BMP280;15949;55.656;37.422;2023-03-16T00:57:01;99008.94;;;1.76
28803;BMP280;15949;55.656;37.422;2023-03-16T01:02:08;99004.63;;;1.71
28803;BMP280;15949;55.656;37.422;2023-03-16T01:07:14;99001.09;;;1.67
28803;BMP280;15949;55.656;37.422;2023-03-16T01:12:19;98999.09;;;1.64
28803;BMP280;15949;55.656;37.422;2023-03-16T01:17:25;99007.28;;;1.66
28803;BMP280;15949;55.656;37.422;2023-03-16T01:22:31;99015.59;;;1.58
28803;BMP280;15949;55.656;37.422;2023-03-16T01:27:38;99008.72;;;1.53
28803;BMP280;15949;55.656;37.422;2023-03-16T01:32:43;99015.19;;;1.51
28803;BMP280;15949;55.656;37.422;2023-03-16T01:37:49;99009.28;;;1.50
28803;BMP280;15949;55.656;37.422;2023-03-16T01:43:03;99006.91;;;1.54
28803;BMP280;15949;55.656;37.422;2023-03-16T01:48:08;99014.63;;;1.54
28803;BMP280;15949;55.656;37.422;2023-03-16T01:53:14;99010.53;;;1.53
28803;BMP280;15949;55.656;37.422;2023-03-16T01:58:20;99006.75;;;1.45
28803;BMP280;15949;55.656;37.422;2023-03-16T02:03:26;99006.31;;;1.43
28803;BMP280;15949;55.656;37.422;2023-03-16T02:08:32;99006.31;;;1.43
28803;BMP280;15949;55.656;37.422;2023-03-16T02:13:38;99013.44;;;1.46
28803;BMP280;15949;55.656;37.422;2023-03-16T02:18:47;99008.03;;;1.48
28803;BMP280;15949;55.656;37.422;2023-03-16T02:23:53;99014.16;;;1.52
28803;BMP280;15949;55.656;37.422;2023-03-16T02:34:30;99016.66;;;1.57
28803;BMP280;15949;55.656;37.422;2023-03-16T02:39:36;99002.00;;;1.58
28803;BMP280;15949;55.656;37.422;2023-03-16T02:44:48;98998.69;;;1.57
28803;BMP280;15949;55.656;37.422;2023-03-16T02:49:55;99000.97;;;1.59
28803;BMP280;15949;55.656;37.422;2023-03-16T02:55:01;98987.03;;;1.65
28803;BMP280;15949;55.656;37.422;2023-03-16T03:00:08;98980.09;;;1.65
28803;BMP280;15949;55.656;37.422;2023-03-16T03:05:18;98990.81;;;1.67
28803;BMP280;15949;55.656;37.422;2023-03-16T03:10:24;98989.78;;;1.68
28803;BMP280;15949;55.656;37.422;2023-03-16T03:15:30;98981.59;;;1.66
28803;BMP280;15949;55.656;37.422;2023-03-16T03:20:35;98988.25;;;1.67
28803;BMP280;15949;55.656;37.422;2023-03-16T03:25:41;98984.66;;;1.68
28803;BMP280;15949;55.656;37.422;2023-03-16T03:30:47;98975.09;;;1.74
28803;BMP280;15949;55.656;37.422;2023-03-16T03:35:54;98978.84;;;1.81
28803;BMP280;15949;55.656;37.422;2023-03-16T03:41:01;98972.16;;;1.80
28803;BMP280;15949;55.656;37.422;2023-03-16T03:46:07;98977.53;;;1.84
28803;BMP280;15949;55.656;37.422;2023-03-16T03:51:12;98976.75;;;1.83
28803;BMP280;15949;55.656;37.422;2023-03-16T03:56:18;98986.72;;;1.85
28803;BMP280;15949;55.656;37.422;2023-03-16T04:01:24;98989.09;;;1.81
28803;BMP280;15949;55.656;37.422;2023-03-16T04:06:29;98984.03;;;1.76
28803;BMP280;15949;55.656;37.422;2023-03-16T04:11:36;98980.22;;;1.74
28803;BMP280;15949;55.656;37.422;2023-03-16T04:16:41;98983.41;;;1.66
28803;BMP280;15949;55.656;37.422;2023-03-16T04:21:49;98974.50;;;1.58
28803;BMP280;15949;55.656;37.422;2023-03-16T04:26:54;98984.25;;;1.61
28803;BMP280;15949;55.656;37.422;2023-03-16T04:32:00;98994.09;;;1.54
28803;BMP280;15949;55.656;37.422;2023-03-16T04:37:06;98993.03;;;1.55
28803;BMP280;15949;55.656;37.422;2023-03-16T04:42:12;98999.78;;;1.51
28803;BMP280;15949;55.656;37.422;2023-03-16T04:47:17;98996.38;;;1.56
28803;BMP280;15949;55.656;37.422;2023-03-16T04:52:23;99016.16;;;1.55
28803;BMP280;15949;55.656;37.422;2023-03-16T04:57:29;99021.06;;;1.51
28803;BMP280;15949;55.656;37.422;2023-03-16T05:02:34;99034.75;;;1.47
28803;BMP280;15949;55.656;37.422;2023-03-16T05:07:41;99037.56;;;1.45
28803;BMP280;15949;55.656;37.422;2023-03-16T05:12:47;99033.19;;;1.46
28803;BMP280;15949;55.656;37.422;2023-03-16T05:17:53;99029.41;;;1.43
28803;BMP280;15949;55.656;37.422;2023-03-16T05:23:00;99037.44;;;1.37
28803;BMP280;15949;55.656;37.422;2023-03-16T05:28:05;99023.50;;;1.43
28803;BMP280;15949;55.656;37.422;2023-03-16T05:33:11;99021.91;;;1.47
28803;BMP280;15949;55.656;37.422;2023-03-16T05:38:17;99029.50;;;1.57
28803;BMP280;15949;55.656;37.422;2023-03-16T05:43:22;99021.25;;;1.60
28803;BMP280;15949;55.656;37.422;2023-03-16T05:48:28;99026.63;;;1.59
28803;BMP280;15949;55.656;37.422;2023-03-16T05:53:34;99032.19;;;1.66
28803;BMP280;15949;55.656;37.422;2023-03-16T05:58:39;99033.94;;;1.70
28803;BMP280;15949;55.656;37.422;2023-03-16T06:03:47;99035.97;;;1.73
28803;BMP280;15949;55.656;37.422;2023-03-16T06:08:53;99041.34;;;1.72
28803;BMP280;15949;55.656;37.422;2023-03-16T06:13:59;99043.25;;;1.66
28803;BMP280;15949;55.656;37.422;2023-03-16T06:19:05;99065.53;;;1.71
28803;BMP280;15949;55.656;37.422;2023-03-16T06:24:11;99071.50;;;1.66
28803;BMP280;15949;55.656;37.422;2023-03-16T06:29:17;99071.41;;;1.71
28803;BMP280;15949;55.656;37.422;2023-03-16T06:34:22;99069.09;;;1.75
28803;BMP280;15949;55.656;37.422;2023-03-16T06:39:28;99062.63;;;1.77
28803;BMP280;15949;55.656;37.422;2023-03-16T06:44:34;99055.81;;;1.86
28803;BMP280;15949;55.656;37.422;2023-03-16T06:49:40;99053.63;;;1.98
28803;BMP280;15949;55.656;37.422;2023-03-16T06:54:45;99057.56;;;2.10
28803;BMP280;15949;55.656;37.422;2023-03-16T06:59:51;99059.25;;;2.19
28803;BMP280;15949;55.656;37.422;2023-03-16T07:04:57;99058.59;;;2.27
28803;BMP280;15949;55.656;37.422;2023-03-16T07:10:02;99062.84;;;2.37
28803;BMP280;15949;55.656;37.422;2023-03-16T07:15:09;99070.94;;;2.44
28803;BMP280;15949;55.656;37.422;2023-03-16T07:20:15;99067.84;;;2.47
28803;BMP280;15949;55.656;37.422;2023-03-16T07:25:20;99076.91;;;2.58
28803;BMP280;15949;55.656;37.422;2023-03-16T07:30:26;99059.69;;;2.72
28803;BMP280;15949;55.656;37.422;2023-03-16T07:35:32;99061.81;;;2.84
28803;BMP280;15949;55.656;37.422;2023-03-16T07:40:41;99053.44;;;2.92
28803;BMP280;15949;55.656;37.422;2023-03-16T07:45:48;99052.38;;;2.93
28803;BMP280;15949;55.656;37.422;2023-03-16T07:50:54;99050.50;;;2.98
28803;BMP280;15949;55.656;37.422;2023-03-16T07:56:00;99044.31;;;2.99
28803;BMP280;15949;55.656;37.422;2023-03-16T08:01:06;99048.31;;;3.19
28803;BMP280;15949;55.656;37.422;2023-03-16T08:06:11;99041.44;;;3.42
28803;BMP280;15949;55.656;37.422;2023-03-16T08:11:17;99056.13;;;3.55
28803;BMP280;15949;55.656;37.422;2023-03-16T08:16:28;99056.13;;;3.55
28803;BMP280;15949;55.656;37.422;2023-03-16T08:21:33;99061.91;;;3.47
28803;BMP280;15949;55.656;37.422;2023-03-16T08:26:40;99051.16;;;3.45
28803;BMP280;15949;55.656;37.422;2023-03-16T08:31:46;99057.19;;;3.40
28803;BMP280;15949;55.656;37.422;2023-03-16T08:36:52;99060.13;;;3.34
28803;BMP280;15949;55.656;37.422;2023-03-16T08:41:58;99059.56;;;3.37
28803;BMP280;15949;55.656;37.422;2023-03-16T08:47:04;99061.56;;;3.40
28803;BMP280;15949;55.656;37.422;2023-03-16T08:52:09;99066.72;;;3.40
28803;BMP280;15949;55.656;37.422;2023-03-16T08:57:15;99077.88;;;3.35
28803;BMP280;15949;55.656;37.422;2023-03-16T09:02:21;99069.50;;;3.30
28803;BMP280;15949;55.656;37.422;2023-03-16T09:07:27;99078.81;;;3.26
28803;BMP280;15949;55.656;37.422;2023-03-16T09:12:37;99061.31;;;3.28
28803;BMP280;15949;55.656;37.422;2023-03-16T09:17:42;99060.34;;;3.37
28803;BMP280;15949;55.656;37.422;2023-03-16T09:22:49;99048.75;;;3.48
28803;BMP280;15949;55.656;37.422;2023-03-16T09:27:55;99055.13;;;3.51
28803;BMP280;15949;55.656;37.422;2023-03-16T09:33:00;99062.97;;;3.46
28803;BMP280;15949;55.656;37.422;2023-03-16T09:38:06;99055.50;;;3.58
28803;BMP280;15949;55.656;37.422;2023-03-16T09:43:48;99056.31;;;3.45
28803;BMP280;15949;55.656;37.422;2023-03-16T09:48:59;99068.34;;;3.36
28803;BMP280;15949;55.656;37.422;2023-03-16T09:54:17;99058.59;;;3.33
28803;BMP280;15949;55.656;37.422;2023-03-16T09:59:25;99063.75;;;3.33
28803;BMP280;15949;55.656;37.422;2023-03-16T10:04:40;99064.34;;;3.43
28803;BMP280;15949;55.656;37.422;2023-03-16T10:09:56;99078.56;;;3.41
28803;BMP280;15949;55.656;37.422;2023-03-16T10:15:08;99064.00;;;3.59
28803;BMP280;15949;55.656;37.422;2023-03-16T10:20:20;99066.28;;;3.60
28803;BMP280;15949;55.656;37.422;2023-03-16T10:25:47;99065.22;;;3.75
28803;BMP280;15949;55.656;37.422;2023-03-16T10:30:56;99070.56;;;3.78
28803;BMP280;15949;55.656;37.422;2023-03-16T10:41:35;99077.34;;;3.61
28803;BMP280;15949;55.656;37.422;2023-03-16T10:46:45;99081.47;;;3.48
28803;BMP280;15949;55.656;37.422;2023-03-16T10:51:57;99077.88;;;3.49
28803;BMP280;15949;55.656;37.422;2023-03-16T11:02:33;99076.81;;;3.50
28803;BMP280;15949;55.656;37.422;2023-03-16T11:07:46;99083.22;;;3.39
28803;BMP280;15949;55.656;37.422;2023-03-16T11:12:52;99074.06;;;3.33
28803;BMP280;15949;55.656;37.422;2023-03-16T11:17:58;99083.03;;;3.35
28803;BMP280;15949;55.656;37.422;2023-03-16T11:23:08;99079.41;;;3.23
28803;BMP280;15949;55.656;37.422;2023-03-16T11:28:23;99079.09;;;3.11
28803;BMP280;15949;55.656;37.422;2023-03-16T11:33:32;99091.22;;;2.96
28803;BMP280;15949;55.656;37.422;2023-03-16T11:44:20;99101.31;;;3.07
28803;BMP280;15949;55.656;37.422;2023-03-16T12:10:46;99116.19;;;2.96
28803;BMP280;15949;55.656;37.422;2023-03-16T12:15:54;99114.25;;;3.01
28803;BMP280;15949;55.656;37.422;2023-03-16T12:21:05;99112.38;;;3.07
28803;BMP280;15949;55.656;37.422;2023-03-16T12:26:11;99117.59;;;3.02
28803;BMP280;15949;55.656;37.422;2023-03-16T12:36:47;99121.88;;;2.93
28803;BMP280;15949;55.656;37.422;2023-03-16T12:52:22;99127.19;;;2.69
28803;BMP280;15949;55.656;37.422;2023-03-16T12:57:29;99148.91;;;2.58
28803;BMP280;15949;55.656;37.422;2023-03-16T13:02:36;99157.00;;;2.51
28803;BMP280;15949;55.656;37.422;2023-03-16T13:07:48;99147.69;;;2.37
28803;BMP280;15949;55.656;37.422;2023-03-16T13:13:15;99143.72;;;2.26
28803;BMP280;15949;55.656;37.422;2023-03-16T13:18:22;99131.50;;;2.18
28803;BMP280;15949;55.656;37.422;2023-03-16T13:23:46;99138.78;;;2.11
28803;BMP280;15949;55.656;37.422;2023-03-16T13:28:56;99135.09;;;2.17
28803;BMP280;15949;55.656;37.422;2023-03-16T13:34:05;99137.47;;;2.13
28803;BMP280;15949;55.656;37.422;2023-03-16T13:39:20;99128.56;;;2.06
28803;BMP280;15949;55.656;37.422;2023-03-16T13:44:27;99126.25;;;2.04
28803;BMP280;15949;55.656;37.422;2023-03-16T13:49:45;99123.94;;;2.02
28803;BMP280;15949;55.656;37.422;2023-03-16T13:54:52;99130.19;;;2.01
28803;BMP280;15949;55.656;37.422;2023-03-16T14:00:16;99139.53;;;1.92
28803;BMP280;15949;55.656;37.422;2023-03-16T14:10:33;99144.44;;;1.89
28803;BMP280;15949;55.656;37.422;2023-03-16T14:15:39;99136.75;;;1.89
28803;BMP280;15949;55.656;37.422;2023-03-16T14:20:46;99123.25;;;1.78
28803;BMP280;15949;55.656;37.422;2023-03-16T14:25:54;99126.91;;;1.72
28803;BMP280;15949;55.656;37.422;2023-03-16T14:31:20;99136.66;;;1.75
28803;BMP280;15949;55.656;37.422;2023-03-16T14:36:33;99135.63;;;1.71
28803;BMP280;15949;55.656;37.422;2023-03-16T14:41:39;99154.38;;;1.72
28803;BMP280;15949;55.656;37.422;2023-03-16T14:46:45;99154.66;;;1.70
28803;BMP280;15949;55.656;37.422;2023-03-16T14:51:52;99165.97;;;1.69
28803;BMP280;15949;55.656;37.422;2023-03-16T14:57:02;99164.94;;;1.70
28803;BMP280;15949;55.656;37.422;2023-03-16T15:02:39;99172.66;;;1.70
28803;BMP280;15949;55.656;37.422;2023-03-16T15:07:43;99180.22;;;1.62
28803;BMP280;15949;55.656;37.422;2023-03-16T15:12:50;99179.44;;;1.61
28803;BMP280;15949;55.656;37.422;2023-03-16T15:17:59;99180.03;;;1.53
28803;BMP280;15949;55.656;37.422;2023-03-16T15:23:05;99183.88;;;1.50
28803;BMP280;15949;55.656;37.422;2023-03-16T15:28:17;99186.47;;;1.45
28803;BMP280;15949;55.656;37.422;2023-03-16T15:33:24;99209.91;;;1.44
28803;BMP280;15949;55.656;37.422;2023-03-16T15:38:32;99216.59;;;1.40
28803;BMP280;15949;55.656;37.422;2023-03-16T15:43:38;99214.28;;;1.43
28803;BMP280;15949;55.656;37.422;2023-03-16T15:48:44;99213.50;;;1.43
28803;BMP280;15949;55.656;37.422;2023-03-16T15:53:52;99223.25;;;1.41
28803;BMP280;15949;55.656;37.422;2023-03-16T15:59:01;99234.03;;;1.43
28803;BMP280;15949;55.656;37.422;2023-03-16T16:04:12;99251.19;;;1.47
28803;BMP280;15949;55.656;37.422;2023-03-16T16:09:20;99247.91;;;1.42
28803;BMP280;15949;55.656;37.422;2023-03-16T16:14:26;99269.41;;;1.46
28803;BMP280;15949;55.656;37.422;2023-03-16T16:19:32;99269.22;;;1.42
28803;BMP280;15949;55.656;37.422;2023-03-16T16:24:38;99278.25;;;1.35
28803;BMP280;15949;55.656;37.422;2023-03-16T16:29:44;99293.22;;;1.23
28803;BMP280;15949;55.656;37.422;2023-03-16T16:34:49;99294.53;;;1.15
28803;BMP280;15949;55.656;37.422;2023-03-16T16:39:56;99308.41;;;1.14
28803;BMP280;15949;55.656;37.422;2023-03-16T16:45:01;99308.16;;;1.11
28803;BMP280;15949;55.656;37.422;2023-03-16T16:50:16;99311.28;;;1.08
28803;BMP280;15949;55.656;37.422;2023-03-16T16:55:22;99326.91;;;1.06
28803;BMP280;15949;55.656;37.422;2023-03-16T17:00:28;99323.34;;;1.02
28803;BMP280;15949;55.656;37.422;2023-03-16T17:05:34;99328.00;;;1.00
28803;BMP280;15949;55.656;37.422;2023-03-16T17:10:40;99337.47;;;0.99
28803;BMP280;15949;55.656;37.422;2023-03-16T17:15:46;99332.88;;;1.01
28803;BMP280;15949;55.656;37.422;2023-03-16T17:20:51;99331.03;;;1.02
28803;BMP280;15949;55.656;37.422;2023-03-16T17:26:00;99328.97;;;1.04
28803;BMP280;15949;55.656;37.422;2023-03-16T17:31:07;99328.53;;;0.97
28803;BMP280;15949;55.656;37.422;2023-03-16T17:36:14;99333.66;;;0.97
28803;BMP280;15949;55.656;37.422;2023-03-16T17:41:25;99344.69;;;0.97
28803;BMP280;15949;55.656;37.422;2023-03-16T17:46:31;99352.41;;;0.92
28803;BMP280;15949;55.656;37.422;2023-03-16T17:51:37;99347.25;;;0.92
28803;BMP280;15949;55.656;37.422;2023-03-16T17:56:44;99358.06;;;0.89
28803;BMP280;15949;55.656;37.422;2023-03-16T18:01:50;99358.31;;;0.83
28803;BMP280;15949;55.656;37.422;2023-03-16T18:06:56;99358.63;;;0.76
28803;BMP280;15949;55.656;37.422;2023-03-16T18:12:02;99369.91;;;0.75
28803;BMP280;15949;55.656;37.422;2023-03-16T18:17:27;99368.63;;;0.73
28803;BMP280;15949;55.656;37.422;2023-03-16T18:22:33;99371.97;;;0.68
28803;BMP280;15949;55.656;37.422;2023-03-16T18:27:39;99375.56;;;0.62
28803;BMP280;15949;55.656;37.422;2023-03-16T18:32:45;99383.03;;;0.59
28803;BMP280;15949;55.656;37.422;2023-03-16T18:37:51;99380.47;;;0.53
28803;BMP280;15949;55.656;37.422;2023-03-16T18:42:59;99380.72;;;0.57
28803;BMP280;15949;55.656;37.422;2023-03-16T18:48:16;99394.28;;;0.52
28803;BMP280;15949;55.656;37.422;2023-03-16T18:53:22;99398.44;;;0.48
28803;BMP280;15949;55.656;37.422;2023-03-16T18:58:28;99408.44;;;0.45
28803;BMP280;15949;55.656;37.422;2023-03-16T19:03:41;99411.75;;;0.50
28803;BMP280;15949;55.656;37.422;2023-03-16T19:08:47;99418.94;;;0.48
28803;BMP280;15949;55.656;37.422;2023-03-16T19:13:53;99422.03;;;0.40
28803;BMP280;15949;55.656;37.422;2023-03-16T19:18:59;99420.97;;;0.41
28803;BMP280;15949;55.656;37.422;2023-03-16T19:24:06;99437.66;;;0.44
28803;BMP280;15949;55.656;37.422;2023-03-16T19:29:13;99443.81;;;0.48
28803;BMP280;15949;55.656;37.422;2023-03-16T19:34:19;99450.97;;;0.46
28803;BMP280;15949;55.656;37.422;2023-03-16T19:39:24;99453.03;;;0.44
28803;BMP280;15949;55.656;37.422;2023-03-16T19:44:31;99459.69;;;0.40
28803;BMP280;15949;55.656;37.422;2023-03-16T19:49:36;99465.31;;;0.37
28803;BMP280;15949;55.656;37.422;2023-03-16T19:54:42;99465.84;;;0.34
28803;BMP280;15949;55.656;37.422;2023-03-16T19:59:57;99470.44;;;0.37
28803;BMP280;15949;55.656;37.422;2023-03-16T20:05:03;99475.31;;;0.38
28803;BMP280;15949;55.656;37.422;2023-03-16T20:10:21;99472.75;;;0.38
28803;BMP280;15949;55.656;37.422;2023-03-16T20:15:30;99466.84;;;0.33
28803;BMP280;15949;55.656;37.422;2023-03-16T20:20:36;99479.94;;;0.31
28803;BMP280;15949;55.656;37.422;2023-03-16T20:25:42;99470.19;;;0.28
28803;BMP280;15949;55.656;37.422;2023-03-16T20:30:48;99474.28;;;0.29
28803;BMP280;15949;55.656;37.422;2023-03-16T20:35:54;99493.50;;;0.27
28803;BMP280;15949;55.656;37.422;2023-03-16T20:41:00;99489.41;;;0.26
28803;BMP280;15949;55.656;37.422;2023-03-16T20:46:14;99486.84;;;0.21
28803;BMP280;15949;55.656;37.422;2023-03-16T20:51:20;99491.44;;;0.24
28803;BMP280;15949;55.656;37.422;2023-03-16T20:56:26;99488.88;;;0.24
28803;BMP280;15949;55.656;37.422;2023-03-16T21:01:31;99499.13;;;0.24
28803;BMP280;15949;55.656;37.422;2023-03-16T21:06:37;99517.31;;;0.27
28803;BMP280;15949;55.656;37.422;2023-03-16T21:11:43;99525.81;;;0.23
28803;BMP280;15949;55.656;37.422;2023-03-16T21:16:50;99515.81;;;0.21
28803;BMP280;15949;55.656;37.422;2023-03-16T21:21:57;99520.16;;;0.26
28803;BMP280;15949;55.656;37.422;2023-03-16T21:27:03;99516.06;;;0.30
28803;BMP280;15949;55.656;37.422;2023-03-16T21:32:18;99528.13;;;0.34
28803;BMP280;15949;55.656;37.422;2023-03-16T21:37:24;99522.22;;;0.29
28803;BMP280;15949;55.656;37.422;2023-03-16T21:42:30;99529.88;;;0.24
28803;BMP280;15949;55.656;37.422;2023-03-16T21:47:35;99529.88;;;0.24
28803;BMP280;15949;55.656;37.422;2023-03-16T21:52:42;99535.25;;;0.27
28803;BMP280;15949;55.656;37.422;2023-03-16T21:57:48;99534.25;;;0.28
28803;BMP280;15949;55.656;37.422;2023-03-16T22:02:56;99534.75;;;0.25
28803;BMP280;15949;55.656;37.422;2023-03-16T22:08:27;99537.34;;;0.30
28803;BMP280;15949;55.656;37.422;2023-03-16T22:13:33;99545.03;;;0.30
28803;BMP280;15949;55.656;37.422;2023-03-16T22:18:39;99547.31;;;0.32
28803;BMP280;15949;55.656;37.422;2023-03-16T22:23:44;99556.06;;;0.31
28803;BMP280;15949;55.656;37.422;2023-03-16T22:28:50;99552.44;;;0.32
28803;BMP280;15949;55.656;37.422;2023-03-16T22:33:57;99559.63;;;0.30
28803;BMP280;15949;55.656;37.422;2023-03-16T22:39:04;99564.75;;;0.30
28803;BMP280;15949;55.656;37.422;2023-03-16T22:44:20;99577.06;;;0.33
28803;BMP280;15949;55.656;37.422;2023-03-16T22:49:26;99581.69;;;0.31
28803;BMP280;15949;55.656;37.422;2023-03-16T22:54:32;99595.00;;;0.33
28803;BMP280;15949;55.656;37.422;2023-03-16T22:59:38;99585.78;;;0.32
28803;BMP280;15949;55.656;37.422;2023-03-16T23:04:44;99596.03;;;0.32
28803;BMP280;15949;55.656;37.422;2023-03-16T23:09:50;99586.81;;;0.31
28803;BMP280;15949;55.656;37.422;2023-03-16T23:14:56;99586.03;;;0.30
28803;BMP280;15949;55.656;37.422;2023-03-16T23:20:15;99598.59;;;0.32
28803;BMP280;15949;55.656;37.422;2023-03-16T23:25:22;99608.84;;;0.32
28803;BMP280;15949;55.656;37.422;2023-03-16T23:30:29;99606.53;;;0.30
28803;BMP280;15949;55.656;37.422;2023-03-16T23:35:35;99605.25;;;0.33
28803;BMP280;15949;55.656;37.422;2023-03-16T23:40:40;99609.63;;;0.32
28803;BMP280;15949;55.656;37.422;2023-03-16T23:45:46;99625.25;;;0.31
28803;BMP280;15949;55.656;37.422;2023-03-16T23:50:54;99611.66;;;0.30
28803;BMP280;15949;55.656;37.422;2023-03-16T23:56:00;99613.47;;;0.30
